Time;durP1;ratioP1;P1;durP2;ratioP2;P2;SDS_P1;SDS_P2;PMS_P1;PMS_P2;Temp;Humidity;BMP_temperature;BMP_pressure;BME280_temperature;BME280_humidity;BME280_pressure;Samples;Min_cycle;Max_cycle;Signal;HPM_P1;HPM_P2
2022/06/28 00:02:18;;;;;;;3.85;3.45;;;;;;;25.60;49.86;99906.44;4470767;32;32951;-88
2022/06/28 00:04:46;;;;;;;6.90;4.10;;;;;;;25.59;49.93;99920.97;4463023;32;33960;-89
2022/06/28 00:07:14;;;;;;;6.57;3.87;;;;;;;25.54;50.17;99928.69;4445345;32;33617;-88
2022/06/28 00:09:43;;;;;;;5.90;3.00;;;;;;;25.42;50.26;99925.44;4469244;32;34118;-88
2022/06/28 00:12:11;;;;;;;5.65;4.12;;;;;;;25.32;50.65;99929.25;4478997;32;33513;-88
2022/06/28 00:18:24;;;;;;;3.75;3.45;;;;;;;25.33;50.89;99925.53;4473215;32;33868;-86
2022/06/28 00:20:52;;;;;;;8.00;3.53;;;;;;;25.17;50.97;99927.13;4463503;32;31743;-87
2022/06/28 00:23:27;;;;;;;6.47;3.83;;;;;;;25.28;50.51;99924.16;4449490;32;33102;-88
2022/06/28 00:25:56;;;;;;;6.68;4.28;;;;;;;25.07;51.47;99915.56;4454190;32;33084;-88
2022/06/28 00:28:24;;;;;;;5.47;3.80;;;;;;;25.08;51.42;99916.41;4452714;32;34100;-88
2022/06/28 00:30:52;;;;;;;4.82;4.25;;;;;;;25.21;50.99;99917.69;4461944;32;33019;-88
2022/06/28 00:33:22;;;;;;;4.28;3.80;;;;;;;25.20;51.02;99905.16;4474957;32;34663;-88
2022/06/28 00:35:50;;;;;;;4.57;3.75;;;;;;;25.03;51.49;99908.75;4449594;32;33385;-88
2022/06/28 00:38:19;;;;;;;3.92;3.60;;;;;;;25.03;51.60;99914.16;4450240;32;33170;-88
2022/06/28 00:40:49;;;;;;;5.12;3.83;;;;;;;25.07;51.34;99915.56;4461780;32;33126;-88
2022/06/28 00:43:18;;;;;;;5.40;4.47;;;;;;;25.13;51.25;99919.50;4450748;32;34032;-88
2022/06/28 00:45:46;;;;;;;4.12;3.65;;;;;;;25.11;51.36;99919.63;4457451;32;34127;-88
2022/06/28 00:48:16;;;;;;;4.28;3.90;;;;;;;24.96;51.94;99923.88;4462350;32;33573;-89
2022/06/28 00:50:46;;;;;;;4.65;3.65;;;;;;;24.83;52.01;99923.41;4447916;32;32234;-89
2022/06/28 00:53:17;;;;;;;5.37;4.20;;;;;;;24.94;51.50;99929.44;4464022;32;33539;-86
2022/06/28 00:55:47;;;;;;;5.18;3.60;;;;;;;24.85;52.17;99921.44;4464177;32;33581;-86
2022/06/28 00:58:16;;;;;;;4.40;3.72;;;;;;;24.89;52.12;99914.72;4461320;32;33101;-88
2022/06/28 01:00:46;;;;;;;6.28;3.70;;;;;;;24.86;52.33;99923.97;4454497;32;32756;-88
2022/06/28 01:03:20;;;;;;;7.30;3.60;;;;;;;24.91;52.17;99929.75;4455245;32;32750;-88
2022/06/28 01:05:51;;;;;;;3.50;3.20;;;;;;;24.92;51.93;99933.28;4462489;32;33893;-88
2022/06/28 01:08:20;;;;;;;4.37;3.95;;;;;;;25.14;51.43;99938.22;4463334;32;33721;-88
2022/06/28 01:10:48;;;;;;;8.60;3.90;;;;;;;24.97;51.87;99949.88;4475660;32;33062;-88
2022/06/28 01:13:25;;;;;;;7.80;4.05;;;;;;;24.66;52.88;99944.88;4462643;32;34108;-88
2022/06/28 01:15:53;;;;;;;5.95;4.32;;;;;;;24.57;53.04;99936.84;4463407;32;33514;-88
2022/06/28 01:18:21;;;;;;;4.05;3.67;;;;;;;24.62;52.94;99937.25;4449039;32;32509;-87
2022/06/28 01:20:49;;;;;;;7.85;4.78;;;;;;;24.69;52.75;99932.94;4460453;32;32681;-88
2022/06/28 01:23:20;;;;;;;4.87;3.85;;;;;;;24.51;53.47;99927.53;4451153;32;33026;-88
2022/06/28 01:25:48;;;;;;;4.43;4.00;;;;;;;24.38;53.75;99940.53;4451999;32;32802;-87
2022/06/28 01:28:17;;;;;;;8.23;4.35;;;;;;;24.48;53.31;99936.75;4462234;32;34134;-88
2022/06/28 01:30:47;;;;;;;4.50;4.00;;;;;;;24.49;53.26;99943.00;4462308;32;32782;-88
2022/06/28 01:33:15;;;;;;;7.03;3.87;;;;;;;24.48;53.30;99941.31;4447168;32;32410;-88
2022/06/28 01:35:43;;;;;;;4.87;4.37;;;;;;;24.51;53.44;99941.03;4462178;32;33714;-88
2022/06/28 01:38:12;;;;;;;4.05;3.37;;;;;;;24.52;53.58;99931.91;4457082;32;33286;-88
2022/06/28 01:40:45;;;;;;;4.15;3.78;;;;;;;24.50;53.78;99928.53;4460290;32;32981;-88
2022/06/28 01:43:14;;;;;;;4.37;3.90;;;;;;;24.47;53.71;99923.44;4448749;32;34023;-88
2022/06/28 01:45:44;;;;;;;6.75;3.83;;;;;;;24.35;54.18;99916.50;4461245;32;32674;-88
2022/06/28 01:48:10;;;;;;;6.30;4.20;;;;;;;24.26;54.15;99923.69;4460343;32;33874;-87
2022/06/28 01:50:40;;;;;;;6.18;4.07;;;;;;;24.43;53.66;99919.34;4473049;32;33340;-87
2022/06/28 01:53:08;;;;;;;5.80;4.20;;;;;;;24.52;53.71;99921.12;4458540;32;33922;-89
2022/06/28 01:55:38;;;;;;;6.50;4.00;;;;;;;24.50;54.08;99926.69;4449934;32;33388;-89
2022/06/28 01:58:07;;;;;;;4.62;4.22;;;;;;;24.15;55.04;99942.78;4460805;32;32874;-90
2022/06/28 02:00:36;;;;;;;4.47;4.07;;;;;;;24.13;55.45;99944.78;4451588;32;33594;-90
2022/06/28 02:03:04;;;;;;;9.18;4.78;;;;;;;24.35;54.96;99946.19;4474774;32;34584;-89
2022/06/28 02:05:42;;;;;;;5.30;4.20;;;;;;;24.28;55.25;99954.06;4452246;32;32783;-89
2022/06/28 02:08:10;;;;;;;4.80;4.32;;;;;;;24.09;55.95;99952.31;4464446;32;33478;-89
2022/06/28 02:10:39;;;;;;;4.28;3.87;;;;;;;24.11;55.77;99944.91;4475527;32;32358;-89
2022/06/28 02:13:09;;;;;;;4.90;4.40;;;;;;;24.02;56.00;99948.50;4464484;32;33654;-89
2022/06/28 02:15:38;;;;;;;5.87;4.30;;;;;;;23.79;56.89;99960.72;4450368;32;32821;-89
2022/06/28 02:18:06;;;;;;;5.43;4.28;;;;;;;23.74;56.85;99950.38;4462610;32;34377;-89
2022/06/28 02:20:34;;;;;;;5.87;5.05;;;;;;;23.84;56.45;99945.78;4449798;32;32007;-88
2022/06/28 02:23:02;;;;;;;5.22;4.62;;;;;;;23.94;56.08;99943.88;4464531;32;34635;-89
2022/06/28 02:25:31;;;;;;;6.82;4.03;;;;;;;23.90;56.26;99942.47;4458528;32;32841;-89
2022/06/28 02:28:00;;;;;;;7.32;4.37;;;;;;;23.84;56.22;99943.09;4450292;32;33859;-89
2022/06/28 02:30:32;;;;;;;5.95;4.62;;;;;;;23.71;56.52;99932.63;4451235;32;33038;-89
2022/06/28 02:33:00;;;;;;;4.40;4.00;;;;;;;23.75;56.21;99939.44;4461103;32;33116;-88
2022/06/28 02:41:03;;;;;;;4.10;3.70;;;;;;;24.03;54.98;99958.31;4476118;32;33847;-88
2022/06/28 02:43:32;;;;;;;5.55;4.45;;;;;;;24.28;55.02;99962.16;4450886;32;32540;-88
2022/06/28 02:46:01;;;;;;;3.87;3.58;;;;;;;24.31;55.43;99963.69;4462974;32;35247;-88
2022/06/28 02:48:34;;;;;;;10.25;4.20;;;;;;;23.64;57.46;99968.41;4464411;32;32657;-88
2022/06/28 02:51:02;;;;;;;7.37;4.90;;;;;;;23.69;57.21;99972.38;4451304;32;32501;-88
2022/06/28 02:53:29;;;;;;;5.12;4.00;;;;;;;23.76;56.98;99968.06;4464761;32;34057;-88
2022/06/28 02:55:57;;;;;;;5.85;4.30;;;;;;;23.74;56.89;99962.00;4450715;32;33514;-88
2022/06/28 02:58:26;;;;;;;4.50;4.05;;;;;;;23.91;56.42;99954.97;4455998;32;32705;-88
2022/06/28 03:00:54;;;;;;;7.10;4.40;;;;;;;23.74;57.03;99956.59;4448368;32;33414;-88
2022/06/28 03:03:22;;;;;;;4.57;4.18;;;;;;;23.73;57.02;99951.34;4455799;32;33257;-88
2022/06/28 03:05:49;;;;;;;5.45;4.10;;;;;;;23.72;57.03;99950.50;4447560;32;33176;-88
2022/06/28 03:08:17;;;;;;;5.25;3.90;;;;;;;23.79;56.56;99947.22;4449979;32;32730;-89
2022/06/28 03:10:46;;;;;;;7.30;4.40;;;;;;;23.80;56.45;99951.62;4450097;32;32091;-89
2022/06/28 03:13:14;;;;;;;4.47;4.05;;;;;;;23.84;56.40;99950.31;4462439;32;33023;-89
2022/06/28 03:15:42;;;;;;;6.30;4.60;;;;;;;23.86;56.51;99945.63;4463668;32;33759;-89
2022/06/28 03:18:10;;;;;;;4.72;4.20;;;;;;;23.70;57.01;99949.81;4475050;32;33902;-88
2022/06/28 03:20:38;;;;;;;5.03;4.25;;;;;;;23.77;56.63;99953.59;4461035;32;33014;-89
2022/06/28 03:23:06;;;;;;;4.62;4.22;;;;;;;23.83;56.43;99956.69;4451736;32;33443;-88
2022/06/28 03:25:41;;;;;;;6.80;4.10;;;;;;;23.80;56.42;99968.63;4455583;32;33211;-87
2022/06/28 03:28:09;;;;;;;10.32;5.07;;;;;;;24.07;55.69;99973.22;4460160;32;34075;-87
2022/06/28 03:30:37;;;;;;;5.82;5.18;;;;;;;23.90;56.55;99987.47;4477686;32;34066;-86
2022/06/28 03:33:06;;;;;;;9.40;4.25;;;;;;;24.05;56.00;99994.06;4477490;32;34753;-88
2022/06/28 03:35:34;;;;;;;5.80;4.30;;;;;;;24.01;56.39;100008.84;4449319;32;32653;-88
2022/06/28 03:38:03;;;;;;;9.48;4.32;;;;;;;24.02;56.74;100024.03;4463954;32;34461;-88
2022/06/28 03:40:32;;;;;;;6.75;5.22;;;;;;;24.09;56.70;100032.41;4448124;32;33466;-88
2022/06/28 03:43:01;;;;;;;9.13;4.40;;;;;;;24.31;55.98;100041.94;4476479;32;36071;-88
2022/06/28 03:45:30;;;;;;;9.10;4.45;;;;;;;24.20;56.48;100043.84;4463256;32;35013;-88
2022/06/28 03:48:00;;;;;;;7.28;4.57;;;;;;;24.15;56.86;100048.84;4462883;32;33283;-88
2022/06/28 03:50:31;;;;;;;7.30;4.85;;;;;;;24.23;56.74;100062.44;4449414;32;32223;-88
2022/06/28 03:53:00;;;;;;;9.32;4.47;;;;;;;24.31;56.86;100074.31;4464945;32;34637;-89
2022/06/28 03:55:30;;;;;;;6.70;4.47;;;;;;;24.49;56.15;100080.69;4449797;32;32927;-88
2022/06/28 03:57:58;;;;;;;5.82;4.37;;;;;;;24.59;55.78;100073.38;4455998;32;31964;-88
2022/06/28 04:00:27;;;;;;;5.28;4.53;;;;;;;24.81;55.15;100071.28;4447718;32;31916;-88
2022/06/28 04:02:58;;;;;;;10.38;4.45;;;;;;;24.74;55.66;100071.88;4460735;32;34656;-88
2022/06/28 04:05:27;;;;;;;5.15;4.37;;;;;;;24.75;55.88;100073.56;4461866;32;33343;-88
2022/06/28 04:07:55;;;;;;;6.95;4.32;;;;;;;24.92;55.17;100068.34;4463127;32;33815;-88
2022/06/28 04:10:24;;;;;;;5.32;3.67;;;;;;;25.07;54.46;100064.16;4448739;32;33500;-88
2022/06/28 04:12:52;;;;;;;7.32;4.12;;;;;;;25.33;53.52;100060.69;4448249;32;32788;-87
2022/06/28 04:15:21;;;;;;;11.10;4.62;;;;;;;25.42;52.92;100071.41;4449578;32;32644;-87
2022/06/28 04:17:50;;;;;;;5.18;3.53;;;;;;;25.79;52.32;100082.03;4460826;32;34134;-87
2022/06/28 04:20:23;;;;;;;5.37;3.47;;;;;;;26.09;52.96;100081.72;4481505;32;33102;-88
2022/06/28 04:22:53;;;;;;;9.77;4.00;;;;;;;26.13;52.68;100086.66;4464158;32;33378;-88
2022/06/28 04:25:28;;;;;;;6.45;3.78;;;;;;;26.48;51.49;100082.13;4450781;32;34294;-88
2022/06/28 04:27:59;;;;;;;4.37;3.00;;;;;;;26.56;50.60;100084.87;4474693;32;32064;-88
2022/06/28 04:30:31;;;;;;;3.70;2.90;;;;;;;26.70;47.70;100078.81;4450077;32;33085;-88
2022/06/28 04:33:01;;;;;;;4.68;3.08;;;;;;;26.59;46.98;100067.44;4435984;32;32897;-88
2022/06/28 04:35:33;;;;;;;5.50;2.90;;;;;;;26.99;45.95;100064.00;4456250;32;34345;-88
2022/06/28 04:38:01;;;;;;;5.72;2.45;;;;;;;27.17;46.50;100064.75;4448284;32;32855;-88
2022/06/28 04:40:31;;;;;;;3.95;2.67;;;;;;;27.28;44.87;100098.81;4463766;32;33022;-88
2022/06/28 04:43:02;;;;;;;7.20;2.60;;;;;;;27.60;43.62;100116.13;4447218;32;33179;-88
2022/06/28 04:45:31;;;;;;;6.12;2.55;;;;;;;27.69;43.64;100113.25;4462205;32;33721;-88
2022/06/28 04:48:02;;;;;;;6.50;3.22;;;;;;;27.50;44.00;100124.44;4451071;31;32937;-87
2022/06/28 04:50:32;;;;;;;5.40;3.35;;;;;;;27.65;43.78;100141.72;4466600;31;32941;-87
2022/06/28 04:53:01;;;;;;;6.05;2.92;;;;;;;27.44;44.55;100141.34;4460449;31;32579;-87
2022/06/28 04:55:29;;;;;;;3.35;2.53;;;;;;;27.37;43.68;100149.31;4458129;31;33560;-88
2022/06/28 04:57:58;;;;;;;4.75;3.20;;;;;;;27.67;43.83;100150.53;4463685;31;32569;-88
2022/06/28 05:00:28;;;;;;;9.75;3.10;;;;;;;27.72;43.76;100140.03;4463367;31;32960;-87
2022/06/28 05:03:16;;;;;;;5.85;3.25;;;;;;;27.42;45.00;100149.66;4452204;32;33268;-87
2022/06/28 05:05:47;;;;;;;6.57;3.35;;;;;;;27.13;47.14;100150.13;4477048;31;32664;-88
2022/06/28 05:08:17;;;;;;;7.22;3.30;;;;;;;26.83;48.80;100137.12;4463987;31;33906;-87
2022/06/28 05:10:46;;;;;;;5.32;2.92;;;;;;;27.03;46.96;100149.37;4475039;31;33487;-87
2022/06/28 05:13:15;;;;;;;5.47;3.08;;;;;;;27.59;45.01;100155.97;4477542;31;33574;-88
2022/06/28 05:15:42;;;;;;;7.47;2.90;;;;;;;27.53;45.61;100162.03;4447764;32;33485;-87
2022/06/28 05:18:11;;;;;;;3.95;2.90;;;;;;;27.17;45.92;100162.31;4460425;31;32714;-87
2022/06/28 05:20:40;;;;;;;7.20;3.50;;;;;;;26.88;46.66;100184.38;4461155;31;33047;-87
2022/06/28 05:23:08;;;;;;;10.38;3.53;;;;;;;26.86;47.38;100180.13;4461254;32;32080;-86
2022/06/28 05:25:38;;;;;;;4.18;2.70;;;;;;;26.88;47.49;100178.97;4475518;31;33732;-86
2022/06/28 05:28:07;;;;;;;4.00;2.50;;;;;;;26.87;48.06;100168.28;4452621;31;32774;-87
2022/06/28 05:30:35;;;;;;;5.62;2.92;;;;;;;26.45;49.47;100166.41;4474682;31;31473;-87
2022/06/28 05:33:04;;;;;;;8.25;3.00;;;;;;;26.40;49.96;100142.47;4464982;31;34414;-87
2022/06/28 05:35:33;;;;;;;12.18;2.70;;;;;;;26.66;49.22;100147.88;4457197;31;32309;-87
2022/06/28 05:38:01;;;;;;;11.63;3.10;;;;;;;26.61;49.79;100155.63;4467142;31;33610;-87
2022/06/28 05:40:30;;;;;;;17.45;4.47;;;;;;;26.48;50.28;100157.94;4463799;31;33116;-86
2022/06/28 05:43:04;;;;;;;4.40;3.53;;;;;;;26.73;53.75;100127.25;4461677;32;32855;-85
2022/06/28 05:45:32;;;;;;;3.65;3.08;;;;;;;26.49;55.03;100097.34;4465124;32;31889;-86
2022/06/28 05:48:03;;;;;;;6.87;3.50;;;;;;;26.24;58.34;100099.91;4466856;32;31951;-85
2022/06/28 05:50:31;;;;;;;6.85;3.53;;;;;;;25.77;60.16;100075.91;4468800;31;33619;-85
2022/06/28 05:53:00;;;;;;;5.12;3.85;;;;;;;25.83;60.87;100035.72;4462523;31;33843;-86
2022/06/28 05:55:30;;;;;;;8.73;4.30;;;;;;;25.78;61.75;100034.38;4481089;31;34120;-86
2022/06/28 05:57:59;;;;;;;9.68;4.57;;;;;;;25.44;62.77;100046.91;4451426;32;34172;-86
2022/06/28 06:00:30;;;;;;;6.75;4.47;;;;;;;25.23;65.39;100048.09;4482512;31;33686;-86
2022/06/28 06:03:01;;;;;;;11.90;4.70;;;;;;;25.28;65.50;100053.87;4466551;31;30843;-86
2022/06/28 06:05:29;;;;;;;6.37;4.53;;;;;;;25.18;66.04;100046.87;4464138;31;32479;-86
2022/06/28 06:08:07;;;;;;;5.67;4.67;;;;;;;25.53;64.38;100043.25;4478135;31;33523;-86
2022/06/28 06:10:39;;;;;;;5.32;4.50;;;;;;;25.66;64.36;100035.59;4466985;31;32399;-86
2022/06/28 06:13:09;;;;;;;5.28;4.28;;;;;;;25.35;66.04;100034.31;4479353;31;32980;-86
2022/06/28 06:15:39;;;;;;;7.57;4.37;;;;;;;25.53;64.97;100025.19;4465067;31;33939;-86
2022/06/28 06:18:07;;;;;;;5.95;4.07;;;;;;;25.45;65.36;99995.41;4463450;31;34658;-86
2022/06/28 06:20:37;;;;;;;6.28;3.90;;;;;;;25.43;64.97;99992.00;4464639;31;33622;-86
2022/06/28 06:23:05;;;;;;;7.90;3.80;;;;;;;24.96;65.67;99983.28;4479550;31;33494;-86
2022/06/28 06:25:38;;;;;;;8.75;3.90;;;;;;;24.39;66.74;99986.25;4462394;31;34447;-86
2022/06/28 06:28:07;;;;;;;8.60;4.68;;;;;;;25.14;64.06;100049.03;4465602;32;33799;-86
2022/06/28 06:30:37;;;;;;;9.60;4.10;;;;;;;25.26;63.62;100090.19;4466077;31;33801;-85
2022/06/28 06:33:09;;;;;;;10.18;4.90;;;;;;;24.74;66.43;100063.78;4477643;32;32861;-86
2022/06/28 06:35:41;;;;;;;13.60;4.00;;;;;;;24.78;66.59;100042.69;4463982;32;35348;-86
2022/06/28 06:38:17;;;;;;;7.30;3.90;;;;;;;24.45;68.20;100042.34;4477128;32;35442;-86
2022/06/28 06:40:49;;;;;;;4.60;3.37;;;;;;;24.36;67.84;100012.69;4463768;32;32730;-86
2022/06/28 06:43:18;;;;;;;11.93;3.60;;;;;;;24.16;68.54;99979.53;4477284;32;34789;-85
2022/06/28 06:45:49;;;;;;;11.02;3.75;;;;;;;24.49;66.66;100007.78;4463431;32;34703;-85
2022/06/28 06:48:18;;;;;;;6.55;4.15;;;;;;;24.59;65.93;100040.97;4475723;32;33378;-85
2022/06/28 06:50:50;;;;;;;6.15;3.95;;;;;;;24.31;66.79;100063.53;4465117;32;33693;-85
2022/06/28 06:53:20;;;;;;;8.65;4.35;;;;;;;24.63;66.63;100068.53;4461437;32;33270;-85
2022/06/28 06:55:50;;;;;;;10.63;4.65;;;;;;;25.00;65.48;100101.69;4476519;32;33902;-84
2022/06/28 06:58:21;;;;;;;8.75;4.12;;;;;;;24.20;69.12;100092.41;4463182;32;32350;-85
2022/06/28 07:00:51;;;;;;;8.30;3.35;;;;;;;24.26;68.90;100089.13;4464701;32;32514;-85
2022/06/28 07:03:22;;;;;;;9.15;4.28;;;;;;;24.67;66.07;100091.53;4464478;32;33475;-85
2022/06/28 07:05:57;;;;;;;7.25;3.28;;;;;;;24.33;68.22;100077.75;4478028;32;33648;-85
2022/06/28 07:08:25;;;;;;;13.13;3.47;;;;;;;24.33;68.29;100084.00;4460616;32;33013;-85
2022/06/28 07:10:55;;;;;;;10.52;3.87;;;;;;;24.48;67.73;100078.97;4476837;32;34011;-85
2022/06/28 07:13:25;;;;;;;8.18;2.72;;;;;;;24.35;68.51;100054.16;4463080;32;32281;-85
2022/06/28 07:15:54;;;;;;;10.10;3.90;;;;;;;24.60;67.59;100058.06;4450048;32;33530;-85
2022/06/28 07:18:24;;;;;;;10.85;3.22;;;;;;;24.32;68.14;100054.47;4463461;32;33057;-85
2022/06/28 07:20:54;;;;;;;10.07;3.03;;;;;;;24.52;67.03;100039.91;4461770;32;32629;-85
2022/06/28 07:23:23;;;;;;;7.72;3.15;;;;;;;24.51;66.87;100043.59;4477072;32;33558;-85
2022/06/28 07:25:56;;;;;;;9.13;3.25;;;;;;;24.45;66.80;100033.37;4476597;32;33599;-85
2022/06/28 07:28:26;;;;;;;10.40;2.58;;;;;;;24.10;67.66;100029.53;4476016;32;33265;-85
2022/06/28 07:30:54;;;;;;;11.60;2.72;;;;;;;24.18;66.68;100018.88;4477692;32;34720;-86
2022/06/28 07:33:25;;;;;;;16.23;2.35;;;;;;;24.22;66.89;100006.78;4460718;32;33463;-85
2022/06/28 07:35:53;;;;;;;11.02;2.15;;;;;;;24.57;66.04;100007.91;4474479;32;34040;-85
2022/06/28 07:38:22;;;;;;;14.45;4.05;;;;;;;24.78;65.38;100016.56;4450082;32;34145;-86
2022/06/28 07:41:00;;;;;;;8.98;2.15;;;;;;;24.79;65.48;100030.94;4463322;32;33611;-85
2022/06/28 07:43:32;;;;;;;7.68;2.40;;;;;;;25.04;65.15;100059.03;4437104;32;34108;-86
2022/06/28 07:46:09;;;;;;;9.63;2.28;;;;;;;25.06;64.69;100053.47;4464382;32;33338;-85
2022/06/28 07:48:37;;;;;;;6.43;2.00;;;;;;;24.70;66.60;100056.97;4462454;32;32662;-85
2022/06/28 07:53:56;;;;;;;9.95;2.20;;;;;;;25.11;64.25;100094.41;4474715;32;33522;-86
2022/06/28 07:56:26;;;;;;;6.85;2.58;;;;;;;24.75;65.91;100105.13;4449704;32;34473;-85
2022/06/28 07:58:54;;;;;;;9.27;2.55;;;;;;;24.70;64.61;100102.88;4462093;32;32895;-86
2022/06/28 08:01:22;;;;;;;10.07;2.95;;;;;;;24.60;66.63;100107.50;4462571;32;33442;-86
2022/06/28 08:03:54;;;;;;;8.68;2.70;;;;;;;24.48;66.64;100098.72;4460764;32;32799;-85
2022/06/28 08:06:24;;;;;;;11.50;2.30;;;;;;;24.60;66.53;100094.00;4463603;32;33346;-86
2022/06/28 08:08:54;;;;;;;12.30;2.83;;;;;;;24.56;67.37;100094.44;4461895;32;33439;-85
2022/06/28 08:11:23;;;;;;;16.83;2.97;;;;;;;24.71;65.40;100093.78;4474180;32;33070;-86
2022/06/28 08:13:54;;;;;;;12.57;3.47;;;;;;;24.78;65.66;100100.28;4463486;32;33236;-86
2022/06/28 08:16:23;;;;;;;8.70;2.60;;;;;;;24.74;66.00;100096.19;4472767;31;33694;-85
2022/06/28 08:18:53;;;;;;;7.15;2.67;;;;;;;24.87;66.11;100086.84;4469870;31;32513;-86
2022/06/28 08:21:29;;;;;;;5.32;2.45;;;;;;;24.96;66.50;100083.25;4464404;31;33911;-86
2022/06/28 08:23:58;;;;;;;10.70;2.87;;;;;;;25.22;64.76;100059.91;4465931;31;32981;-87
2022/06/28 08:26:28;;;;;;;12.20;2.87;;;;;;;25.01;67.01;100072.81;4475832;31;34210;-86
2022/06/28 08:29:05;;;;;;;9.52;3.22;;;;;;;25.23;64.48;100075.13;4453039;31;33972;-87
2022/06/28 08:31:34;;;;;;;4.62;2.25;;;;;;;24.97;66.18;100084.94;4447309;31;33978;-87
2022/06/28 08:34:05;;;;;;;6.65;2.28;;;;;;;25.18;64.48;100096.34;4477862;31;33694;-87
2022/06/28 08:36:34;;;;;;;8.50;2.78;;;;;;;25.22;63.51;100097.75;4466519;31;33927;-87
2022/06/28 08:39:05;;;;;;;4.15;2.05;;;;;;;25.42;63.03;100094.87;4466801;31;32890;-87
2022/06/28 08:41:44;;;;;;;5.55;2.58;;;;;;;25.52;63.24;100090.25;4488370;31;32842;-87
2022/06/28 08:44:18;;;;;;;11.40;2.67;;;;;;;25.47;63.61;100100.69;4453207;31;32863;-86
2022/06/28 08:46:50;;;;;;;4.47;2.40;;;;;;;25.64;63.38;100097.13;4471630;31;34199;-87
2022/06/28 08:49:26;;;;;;;5.28;2.05;;;;;;;26.16;62.59;100096.28;4478317;31;33760;-87
2022/06/28 08:51:58;;;;;;;7.12;2.50;;;;;;;26.25;61.13;100101.63;4477897;31;33221;-87
2022/06/28 08:54:27;;;;;;;7.07;2.90;;;;;;;26.51;58.66;100117.00;4475567;31;33589;-87
2022/06/28 08:56:57;;;;;;;9.32;2.42;;;;;;;26.59;60.25;100111.63;4477767;31;31893;-87
2022/06/28 08:59:26;;;;;;;6.00;1.83;;;;;;;26.45;57.39;100112.25;4464147;31;33824;-87
2022/06/28 09:01:55;;;;;;;8.88;2.33;;;;;;;26.56;58.89;100114.66;4462990;31;33202;-86
2022/06/28 09:04:24;;;;;;;5.53;1.60;;;;;;;26.72;59.26;100120.12;4474530;31;34630;-87
2022/06/28 09:06:52;;;;;;;4.37;1.98;;;;;;;26.84;57.15;100123.41;4472678;31;33898;-86
2022/06/28 09:09:25;;;;;;;7.28;1.70;;;;;;;26.95;57.54;100119.53;4458578;31;33192;-87
2022/06/28 09:11:53;;;;;;;7.22;2.22;;;;;;;27.17;55.67;100118.13;4455714;31;282368;-87
2022/06/28 09:14:24;;;;;;;2.58;1.55;;;;;;;27.27;57.12;100130.50;4462573;31;33632;-87
2022/06/28 09:16:54;;;;;;;;;;;;;;;27.35;54.88;100129.66;4475786;31;34649;-87
2022/06/28 09:19:38;;;;;;;8.48;2.12;;;;;;;27.48;55.70;100134.59;4449514;31;32629;-87
2022/06/28 09:22:33;;;;;;;5.03;1.90;;;;;;;27.23;54.67;100129.13;4473995;31;31975;-86
2022/06/28 09:25:13;;;;;;;9.90;2.10;;;;;;;27.40;55.51;100131.87;4452873;31;34315;-87
2022/06/28 09:27:43;;;;;;;4.97;2.08;;;;;;;27.62;54.10;100133.91;4454094;31;34284;-87
2022/06/28 09:30:21;;;;;;;5.03;1.67;;;;;;;27.65;54.86;100121.87;4453685;31;32410;-87
2022/06/28 09:32:50;;;;;;;8.02;1.95;;;;;;;27.88;57.44;100132.94;4478785;31;32984;-87
2022/06/28 09:35:23;;;;;;;2.17;1.80;;;;;;;28.43;52.79;100127.59;4480947;31;34189;-87
2022/06/28 09:37:53;;;;;;;;;;;;;;;28.72;53.05;100128.84;4456844;31;33256;-86
2022/06/28 09:40:28;;;;;;;5.57;2.58;;;;;;;29.02;50.81;100124.50;4478249;31;34482;-86
2022/06/28 09:43:07;;;;;;;6.37;2.85;;;;;;;28.98;52.51;100131.31;4464392;31;33284;-87
2022/06/28 09:45:38;;;;;;;7.55;2.85;;;;;;;29.15;53.70;100130.22;4477277;31;32381;-87
2022/06/28 09:48:15;;;;;;;10.38;2.80;;;;;;;29.36;54.06;100134.16;4480400;31;34484;-87
2022/06/28 09:50:46;;;;;;;5.30;1.80;;;;;;;29.60;52.64;100136.72;4463840;31;32728;-88
2022/06/28 09:53:16;;;;;;;2.90;2.28;;;;;;;29.76;49.54;100141.16;4454937;32;34023;-87
2022/06/28 09:55:45;;;;;;;4.00;2.35;;;;;;;29.93;49.66;100131.00;4465374;31;33886;-87
2022/06/28 09:58:14;;;;;;;6.10;2.65;;;;;;;30.24;49.60;100134.47;4475558;31;33607;-87
2022/06/28 10:00:43;;;;;;;3.47;2.28;;;;;;;29.99;49.03;100122.94;4450816;31;32711;-87
2022/06/28 10:03:11;;;;;;;7.22;3.15;;;;;;;30.45;50.66;100121.97;4460479;32;32483;-87
2022/06/28 10:05:39;;;;;;;5.55;2.42;;;;;;;30.35;52.66;100128.56;4473127;31;33568;-87
2022/06/28 10:08:10;;;;;;;2.85;2.28;;;;;;;30.73;48.92;100119.47;4450424;31;32874;-87
2022/06/28 10:10:41;;;;;;;4.40;2.78;;;;;;;30.76;48.45;100121.78;4473371;31;33035;-87
2022/06/28 10:16:11;;;;;;;3.47;2.12;;;;;;;31.01;49.10;100123.16;4476625;31;34634;-87
2022/06/28 10:18:41;;;;;;;5.18;2.67;;;;;;;31.10;47.70;100113.00;4461468;32;33878;-87
2022/06/28 10:21:12;;;;;;;5.45;2.40;;;;;;;31.30;47.89;100119.53;4478459;31;32029;-87
2022/06/28 10:23:46;;;;;;;3.58;2.05;;;;;;;30.89;48.87;100116.50;4461889;32;33607;-87
2022/06/28 10:26:14;;;;;;;3.72;2.50;;;;;;;31.58;48.18;100116.03;4467736;31;34550;-87
2022/06/28 10:28:46;;;;;;;2.53;2.22;;;;;;;31.94;45.89;100106.91;4476087;31;34383;-87
2022/06/28 10:31:25;;;;;;;5.57;2.22;;;;;;;31.96;45.95;100107.56;4467519;31;33538;-87
2022/06/28 10:34:22;;;;;;;6.37;2.53;;;;;;;31.81;45.38;100104.87;4474687;31;32225;-87
2022/06/28 10:36:57;;;;;;;4.75;2.87;;;;;;;31.77;45.55;100109.06;4476573;31;34003;-87
2022/06/28 10:39:37;;;;;;;7.22;2.30;;;;;;;31.80;45.25;100108.63;4465695;31;34708;-87
2022/06/28 10:42:12;;;;;;;4.15;2.87;;;;;;;31.89;46.43;100112.13;4475834;31;33461;-88
2022/06/28 10:44:52;;;;;;;4.00;2.33;;;;;;;31.99;44.42;100101.69;4464447;31;33899;-88
2022/06/28 10:47:21;;;;;;;4.45;2.40;;;;;;;31.85;46.97;100109.75;4476861;31;32659;-85
2022/06/28 10:49:54;;;;;;;5.95;2.65;;;;;;;32.22;44.13;100102.25;4476917;31;34796;-86
2022/06/28 10:52:24;;;;;;;2.40;2.20;;;;;;;32.30;43.49;100104.84;4472991;31;34199;-85
2022/06/28 10:54:57;;;;;;;4.23;2.27;;;;;;;32.29;43.47;100103.16;4480061;31;32621;-87
2022/06/28 10:57:27;;;;;;;3.92;2.83;;;;;;;32.70;42.45;100093.28;4494088;31;33437;-88
2022/06/28 11:00:18;;;;;;;3.45;2.22;;;;;;;32.83;41.57;100088.72;4476244;31;33504;-87
2022/06/28 11:02:57;;;;;;;3.83;2.62;;;;;;;32.45;42.30;100088.34;4464479;31;32276;-88
2022/06/28 11:05:47;;;;;;;2.97;2.62;;;;;;;33.30;42.12;100087.00;4466050;31;32230;-88
2022/06/28 11:08:58;;;;;;;4.93;3.55;;;;;;;33.46;41.31;100088.50;4473862;31;32400;-87
2022/06/28 11:11:35;;;;;;;6.03;3.42;;;;;;;33.35;39.70;100084.47;4466387;31;32960;-87
2022/06/28 11:14:34;;;;;;;3.72;3.05;;;;;;;33.16;40.97;100087.19;4477398;31;35200;-87
2022/06/28 11:17:24;;;;;;;4.55;2.47;;;;;;;32.92;41.95;100099.53;4482208;31;33569;-87
2022/06/28 11:19:55;;;;;;;4.50;2.62;;;;;;;33.26;39.71;100082.13;4467063;31;34698;-87
2022/06/28 11:22:25;;;;;;;7.70;2.30;;;;;;;33.04;39.77;100078.72;4454731;31;33978;-86
2022/06/28 11:24:57;;;;;;;6.28;2.40;;;;;;;33.42;39.19;100080.87;4467878;31;32811;-87
2022/06/28 11:27:31;;;;;;;5.00;2.90;;;;;;;33.77;38.66;100067.87;4482062;31;31643;-88
2022/06/28 11:30:07;;;;;;;5.95;2.53;;;;;;;34.05;39.09;100075.91;4461664;32;32437;-88
2022/06/28 11:32:43;;;;;;;6.70;2.50;;;;;;;33.99;39.19;100071.25;4478370;31;33476;-87
2022/06/28 11:35:32;;;;;;;9.32;3.25;;;;;;;33.94;39.10;100065.53;4469559;31;33635;-88
2022/06/28 11:38:08;;;;;;;4.25;2.85;;;;;;;33.97;38.45;100067.91;4467773;32;33442;-87
2022/06/28 11:40:50;;;;;;;5.82;3.00;;;;;;;34.13;38.58;100064.69;4465177;31;34049;-87
2022/06/28 11:43:27;;;;;;;4.43;3.03;;;;;;;33.99;39.25;100063.03;4454678;31;33051;-87
2022/06/28 11:45:55;;;;;;;6.62;2.72;;;;;;;34.13;39.95;100061.94;4465260;31;33830;-87
2022/06/28 11:48:28;;;;;;;5.80;2.55;;;;;;;34.12;38.49;100057.53;4466255;31;32807;-88
2022/06/28 11:51:00;;;;;;;4.62;3.85;;;;;;;34.42;38.93;100048.78;4478545;31;33503;-87
2022/06/28 11:53:43;;;;;;;4.00;3.37;;;;;;;34.38;38.50;100048.41;4451290;31;34132;-87
2022/06/28 11:56:13;;;;;;;4.57;3.00;;;;;;;34.25;38.58;100048.44;4464768;31;33931;-87
2022/06/28 11:58:41;;;;;;;6.00;2.50;;;;;;;34.21;38.42;100037.06;4460686;31;30740;-89
2022/06/28 12:01:13;;;;;;;3.97;2.70;;;;;;;33.75;39.20;100032.47;4461515;31;33253;-87